DW8689 Weather Reports


Display with metric or nautical units.
time (UTC)temp
F
wind
direction
speed
MPH
gust
MPH
rain 1hr
in
rain 24hr
in
rain mn
in
humidity
%
barometer
mb
20180722105007 71 274 10.0 13.0 0.00 0.00 0.00 81 993.5
20180722102007 73 274 11.0 14.0 0.00 0.00 0.00 78 993.5
20180722100007 67 270 8.0 11.0 0.00 0.00 0.00 98 993.3
20180722095006 66 280 9.0 12.0 0.00 0.00 0.00 97 993.5
20180722093006 66 310 8.0 11.0 0.00 0.00 0.00 99 993.5
20180722092007 66 295 8.0 10.0 0.00 0.00 0.00 99 993.6
20180722091006 66 342 7.0 10.0 0.00 0.00 0.00 99 993.6
20180722090006 65 290 8.0 10.0 0.00 0.00 0.00 99 993.6
20180722085006 64 298 8.0 11.0 0.00 0.00 0.00 99 993.6
20180722084009 64 277 7.0 10.0 0.00 0.00 0.00 99 993.6
20180722083006 63 270 7.0 9.0 0.00 0.00 0.00 99 993.7
20180722081006 63 270 7.0 8.0 0.00 0.00 0.00 99 993.7
20180722080007 62 275 7.0 9.0 0.00 0.00 0.00 99 993.7
20180722075006 62 286 5.0 6.0 0.00 0.00 0.00 99 993.5
20180722074006 62 280 6.0 9.0 0.00 0.00 0.00 99 993.6
20180722073006 62 270 6.0 9.0 0.00 0.00 0.00 99 993.5
20180722070006 62 270 7.0 10.0 0.00 0.00 0.00 99 993.5
20180722065007 62 274 7.0 11.0 0.00 0.00 0.00 99 993.5
20180722060007 61 270 7.0 9.0 0.00 0.00 0.00 99 993.4
20180722055007 61 270 6.0 8.0 0.00 0.00 0.00 99 993.4
20180722054006 61 280 6.0 8.0 0.00 0.00 0.00 99 993.5
20180722053006 61 272 7.0 12.0 0.00 0.00 0.00 99 993.5
20180722052006 61 276 12.0 14.0 0.00 0.00 0.00 99 993.5
20180722051007 61 274 9.0 13.0 0.00 0.00 0.00 99 993.4
20180722044007 61 270 11.0 16.0 0.00 0.00 0.00 99 993.6
20180722043006 61 297 12.0 16.0 0.00 0.00 0.00 99 993.6
20180722042006 60 270 10.0 14.0 0.00 0.00 0.00 99 993.5
20180722041006 60 317 11.0 18.0 0.00 0.00 0.00 99 993.5
20180722040006 60 296 8.0 11.0 0.00 0.00 0.00 99 993.6
20180722033007 60 270 6.0 8.0 0.00 0.00 0.00 99 993.6
20180722032006 60 270 6.0 8.0 0.00 0.00 0.00 99 993.7
20180722031006 60 270 6.0 9.0 0.00 0.00 0.00 99 993.6
20180722023007 60 270 7.0 9.0 0.00 0.00 0.00 99 993.6
20180722022006 60 270 5.0 6.0 0.00 0.00 0.00 99 993.5
20180722021007 60 274 4.0 5.0 0.00 0.00 0.00 99 993.7
20180722015006 59 270 7.0 8.0 0.00 0.00 0.00 99 993.8
20180722013006 60 270 7.0 8.0 0.00 0.00 0.00 99 993.9
20180722010006 60 274 6.0 7.0 0.00 0.00 0.00 99 994.0
20180722005006 60 276 4.0 6.0 0.00 0.00 0.00 99 994.0
20180722004006 60 274 3.0 5.0 0.00 0.00 0.00 99 994.0
20180722003007 60 270 3.0 5.0 0.00 0.00 0.00 99 994.0
20180722002006 60 270 3.0 5.0 0.00 0.00 0.00 99 993.8
20180722000007 60 270 8.0 11.0 0.00 0.00 0.00 99 993.7
20180721235007 60 280 9.0 12.0 0.00 0.00 0.00 99 993.8
20180721233006 60 270 11.0 18.0 0.00 0.00 0.00 99 994.0
20180721232007 60 270 11.0 16.0 0.00 0.00 0.00 99 994.0
20180721231007 60 270 9.0 14.0 0.00 0.00 0.00 99 994.1
20180721230008 60 270 10.0 14.0 0.00 0.00 0.00 99 994.2
20180721225007 60 270 13.0 16.0 0.00 0.00 0.00 99 994.1
20180721224007 60 270 12.0 16.0 0.00 0.00 0.00 99 994.0
20180721223006 60 288 12.0 14.0 0.00 0.00 0.00 99 994.2
20180721222007 60 283 11.0 14.0 0.00 0.00 0.00 99 994.2
20180721220007 60 282 9.0 11.0 0.00 0.00 0.00 99 994.2
20180721211007 60 310 7.0 10.0 0.00 0.00 0.00 99 994.0
20180721210006 60 356 7.0 11.0 0.00 0.00 0.00 99 994.0
20180721205007 60 1 6.0 8.0 0.00 0.00 0.00 99 994.1
20180721204007 60 1 7.0 8.0 0.00 0.00 0.00 99 993.9
20180721203006 60 1 7.0 10.0 0.00 0.00 0.00 99 994.0
20180721202007 60 1 7.0 11.0 0.00 0.00 0.00 99 993.8
20180721201006 60 1 5.0 5.0 0.00 0.00 0.00 99 994.0
20180721200007 60 1 6.0 7.0 0.00 0.00 0.00 99 993.9
20180721195007 60 1 8.0 10.0 0.00 0.00 0.00 99 994.0
20180721193006 60 1 7.0 11.0 0.00 0.00 0.00 99 993.9
20180721192006 60 1 9.0 12.0 0.00 0.00 0.00 99 994.0
20180721190006 60 1 9.0 13.0 0.00 0.00 0.00 97 993.6
20180721182006 61 1 9.0 12.0 0.00 0.00 0.00 91 993.6
20180721174006 61 1 8.0 11.0 0.00 0.00 0.00 88 993.6
20180721172006 62 1 9.0 12.0 0.00 0.00 0.00 84 993.5
20180721171007 62 1 10.0 12.0 0.00 0.00 0.00 84 993.5
20180721165007 63 1 8.0 13.0 0.00 0.00 0.00 81 993.5
20180721164007 63 1 7.0 10.0 0.00 0.00 0.00 80 993.5
20180721163006 63 1 7.0 10.0 0.00 0.00 0.00 79 993.5
20180721161006 64 1 8.0 10.0 0.00 0.00 0.00 72 993.7
20180721155006 67 1 7.0 10.0 0.00 0.00 0.00 63 993.5
20180721154007 67 1 8.0 10.0 0.00 0.00 0.00 63 993.6
20180721153006 67 1 7.0 11.0 0.00 0.00 0.00 67 993.7
20180721152007 68 1 8.0 10.0 0.00 0.00 0.00 68 993.7
20180721144007 67 1 7.0 12.0 0.00 0.00 0.00 72 993.8
20180721142006 66 1 8.0 10.0 0.00 0.00 0.00 69 994.0
20180721141007 67 1 8.0 9.0 0.00 0.00 0.00 71 994.1
20180721140006 69 1 7.0 12.0 0.00 0.00 0.00 63 994.1
20180721133007 70 1 9.0 13.0 0.00 0.00 0.00 64 994.2
20180721132006 71 1 9.0 14.0 0.00 0.00 0.00 64 994.1
20180721131007 70 1 10.0 13.0 0.00 0.00 0.00 63 994.0
20180721130006 69 1 10.0 13.0 0.00 0.00 0.00 67 994.0
20180721125006 69 1 10.0 14.0 0.00 0.00 0.00 68 994.1
20180721124006 69 1 8.0 12.0 0.00 0.00 0.00 65 994.2
20180721123006 68 1 9.0 12.0 0.00 0.00 0.00 71 994.3
20180721121006 65 1 7.0 11.0 0.00 0.00 0.00 72 994.4
20180721120006 65 1 8.0 11.0 0.00 0.00 0.00 76 994.5
20180721115006 65 1 8.0 11.0 0.00 0.00 0.00 74 994.5
20180721114006 65 1 7.0 13.0 0.00 0.00 0.00 74 994.5
20180721113006 66 324 9.0 13.0 0.00 0.00 0.00 69 994.5